Time;durP1;ratioP1;P1;durP2;ratioP2;P2;SDS_P1;SDS_P2;PMS_P1;PMS_P2;Temp;Humidity;BMP_temperature;BMP_pressure;BME280_temperature;BME280_humidity;BME280_pressure;Samples;Min_cycle;Max_cycle;Signal;HPM_P1;HPM_P2
2022/07/10 01:29:39;;;;;;;;;;;13.80;86.70;;;;;;4972234;28;20054;-65
2022/07/10 01:32:06;;;;;;;;;;;13.80;85.00;;;;;;4973609;28;19921;-65
2022/07/10 01:34:32;;;;;;;;;;;13.80;84.40;;;;;;4989830;28;19910;-65
2022/07/10 01:36:59;;;;;;;;;;;13.80;84.30;;;;;;4989618;28;19914;-64
2022/07/10 01:39:26;;;;;;;;;;;13.70;84.50;;;;;;4990288;28;20280;-65
2022/07/10 01:41:52;;;;;;;;;;;13.80;84.70;;;;;;4989786;28;20542;-65
2022/07/10 01:44:19;;;;;;;;;;;13.70;85.00;;;;;;4988643;28;20284;-65
2022/07/10 01:46:46;;;;;;;;;;;13.80;84.00;;;;;;4983436;28;20556;-64
2022/07/10 01:49:13;;;;;;;;;;;13.80;86.50;;;;;;4987054;28;20295;-63
2022/07/10 01:51:39;;;;;;;;;;;13.60;87.10;;;;;;4986243;28;20430;-64
2022/07/10 01:54:06;;;;;;;;;;;13.40;87.50;;;;;;4989473;28;20371;-64
2022/07/10 01:56:32;;;;;;;;;;;13.30;88.00;;;;;;4990269;28;20431;-64
2022/07/10 01:59:01;;;;;;;;;;;13.20;89.30;;;;;;4991059;28;19921;-64
2022/07/10 02:01:27;;;;;;;;;;;13.00;90.10;;;;;;4995511;28;19997;-66
2022/07/10 02:06:39;;;;;;;;;;;12.70;91.00;;;;;;4988046;28;19971;-65
2022/07/10 02:09:05;;;;;;;;;;;12.70;90.00;;;;;;4992763;28;19909;-65
2022/07/10 02:11:32;;;;;;;;;;;12.70;90.80;;;;;;4990684;28;19914;-64
2022/07/10 02:13:58;;;;;;;;;;;12.70;89.40;;;;;;4987706;28;19944;-65
2022/07/10 02:16:25;;;;;;;;;;;12.70;89.60;;;;;;4995783;28;20295;-65
2022/07/10 02:18:51;;;;;;;;;;;12.80;88.60;;;;;;4984989;28;19918;-64
2022/07/10 02:21:18;;;;;;;;;;;13.20;86.20;;;;;;4987222;28;19941;-64
2022/07/10 02:23:44;;;;;;;;;;;13.60;82.90;;;;;;4986146;28;19924;-63
2022/07/10 02:26:11;;;;;;;;;;;13.80;78.70;;;;;;4988587;28;19918;-63
2022/07/10 02:28:37;;;;;;;;;;;13.80;81.80;;;;;;4980779;28;19910;-65
2022/07/10 02:31:04;;;;;;;;;;;13.70;80.20;;;;;;4989456;28;20347;-65
2022/07/10 02:33:31;;;;;;;;;;;13.80;79.40;;;;;;4984993;28;20261;-63
2022/07/10 02:35:57;;;;;;;;;;;13.90;85.20;;;;;;4985947;28;19979;-63
2022/07/10 02:38:24;;;;;;;;;;;14.00;86.70;;;;;;4990606;28;19909;-64
2022/07/10 02:40:50;;;;;;;;;;;13.90;88.10;;;;;;4990510;28;20379;-64
2022/07/10 02:43:17;;;;;;;;;;;13.70;88.60;;;;;;4979165;28;20316;-64
2022/07/10 02:45:43;;;;;;;;;;;13.70;88.40;;;;;;4989375;28;19964;-64
2022/07/10 02:48:10;;;;;;;;;;;13.90;84.20;;;;;;4991265;28;19909;-64
2022/07/10 02:50:37;;;;;;;;;;;14.10;82.80;;;;;;4992284;28;19925;-64
2022/07/10 02:53:03;;;;;;;;;;;14.20;82.70;;;;;;4994340;28;19921;-64
2022/07/10 02:55:31;;;;;;;;;;;14.10;82.60;;;;;;4992848;28;19909;-63
2022/07/10 02:57:59;;;;;;;;;;;14.20;82.30;;;;;;4994118;28;20391;-63
2022/07/10 03:00:26;;;;;;;;;;;14.20;81.40;;;;;;4994426;28;20040;-64
2022/07/10 03:02:54;;;;;;;;;;;14.40;82.00;;;;;;4993767;28;19933;-64
2022/07/10 03:05:20;;;;;;;;;;;14.40;81.70;;;;;;4990415;28;20008;-63
2022/07/10 03:07:47;;;;;;;;;;;14.50;81.10;;;;;;4990431;28;20016;-64
2022/07/10 03:10:14;;;;;;;;;;;14.50;79.10;;;;;;4990977;28;19913;-64
2022/07/10 03:12:40;;;;;;;;;;;14.70;77.90;;;;;;4974508;28;19925;-64
2022/07/10 03:15:07;;;;;;;;;;;14.70;76.70;;;;;;4983096;28;19918;-63
2022/07/10 03:17:33;;;;;;;;;;;14.70;76.70;;;;;;4989366;28;19921;-64
2022/07/10 03:20:00;;;;;;;;;;;14.60;77.00;;;;;;4992552;28;19913;-64
2022/07/10 07:07:22;;;;;;;;;;;12.30;96.60;;;;;;4981930;28;19928;-64
2022/07/10 07:09:52;;;;;;;;;;;12.30;96.80;;;;;;4981301;28;19917;-65
2022/07/10 07:12:18;;;;;;;;;;;12.30;97.00;;;;;;4992082;28;20359;-65
2022/07/10 07:14:45;;;;;;;;;;;12.30;97.00;;;;;;4991801;28;19909;-66
2022/07/10 07:17:14;;;;;;;;;;;12.30;97.10;;;;;;4992899;28;19917;-66
2022/07/10 07:25:10;;;;;;;;;;;12.20;97.20;;;;;;4995020;28;19920;-65
2022/07/10 07:27:37;;;;;;;;;;;12.20;97.30;;;;;;4998024;28;19917;-65
2022/07/10 07:30:04;;;;;;;;;;;12.20;97.30;;;;;;4989901;28;19910;-65
2022/07/10 07:32:31;;;;;;;;;;;12.30;97.40;;;;;;4997583;28;19928;-66
2022/07/10 07:34:58;;;;;;;;;;;12.30;97.50;;;;;;4997981;28;19906;-64
2022/07/10 07:37:34;;;;;;;;;;;12.30;97.40;;;;;;4991894;28;19912;-63
2022/07/10 07:40:01;;;;;;;;;;;12.20;97.50;;;;;;4993895;28;19949;-66
2022/07/10 07:42:27;;;;;;;;;;;12.20;97.50;;;;;;4998804;28;19988;-65
2022/07/10 07:44:54;;;;;;;;;;;12.20;97.50;;;;;;4987289;28;20307;-64
2022/07/10 07:47:20;;;;;;;;;;;12.20;97.60;;;;;;4975650;28;20888;-65
2022/07/10 07:49:47;;;;;;;;;;;12.20;97.60;;;;;;4991037;28;19918;-63
2022/07/10 07:52:14;;;;;;;;;;;12.20;97.60;;;;;;4991401;28;20391;-63
2022/07/10 07:54:40;;;;;;;;;;;12.20;97.70;;;;;;4996036;28;19910;-64
2022/07/10 07:57:07;;;;;;;;;;;12.20;97.70;;;;;;4994347;28;19915;-65
2022/07/10 07:59:34;;;;;;;;;;;12.20;97.70;;;;;;4994632;28;20328;-65
2022/07/10 08:02:01;;;;;;;;;;;12.20;97.70;;;;;;4997494;28;19999;-65
2022/07/10 08:04:28;;;;;;;;;;;12.20;97.70;;;;;;4989258;28;19909;-64
2022/07/10 08:06:54;;;;;;;;;;;12.20;97.70;;;;;;4991688;28;19937;-64
2022/07/10 08:09:21;;;;;;;;;;;12.20;97.80;;;;;;4991666;28;19972;-64
2022/07/10 08:11:47;;;;;;;;;;;12.20;97.80;;;;;;4987975;28;19909;-64
2022/07/10 08:14:14;;;;;;;;;;;12.10;97.70;;;;;;4987378;28;20024;-64
2022/07/10 08:16:41;;;;;;;;;;;12.20;97.70;;;;;;4987332;28;19920;-65
2022/07/10 08:19:07;;;;;;;;;;;12.10;97.70;;;;;;4991316;28;19913;-65
2022/07/10 08:21:34;;;;;;;;;;;12.10;97.80;;;;;;4992780;28;19910;-65
2022/07/10 08:24:01;;;;;;;;;;;12.10;97.80;;;;;;4998883;28;20427;-64
2022/07/10 08:26:27;;;;;;;;;;;12.20;97.80;;;;;;4996671;28;20386;-64
2022/07/10 08:28:54;;;;;;;;;;;12.10;97.70;;;;;;5001476;28;19913;-64
2022/07/10 08:31:21;;;;;;;;;;;12.20;97.80;;;;;;4992403;28;19910;-65
2022/07/10 08:33:47;;;;;;;;;;;12.10;97.80;;;;;;4996297;28;19926;-66
2022/07/10 08:36:14;;;;;;;;;;;12.10;97.80;;;;;;4989744;28;19914;-66
2022/07/10 08:38:40;;;;;;;;;;;12.10;97.70;;;;;;4991663;28;19976;-65
2022/07/10 08:41:07;;;;;;;;;;;12.00;97.70;;;;;;4991283;28;20415;-65
2022/07/10 08:43:34;;;;;;;;;;;12.00;97.70;;;;;;4990900;28;19917;-66
2022/07/10 08:46:01;;;;;;;;;;;12.00;97.70;;;;;;4985183;28;20422;-66
2022/07/10 08:48:27;;;;;;;;;;;12.00;97.70;;;;;;4974638;28;20403;-66
2022/07/10 08:50:54;;;;;;;;;;;12.00;97.70;;;;;;4990904;28;19909;-67
2022/07/10 08:53:26;;;;;;;;;;;12.10;97.80;;;;;;4980040;28;20376;-67
2022/07/10 08:55:53;;;;;;;;;;;12.00;97.70;;;;;;4982379;28;19913;-65
2022/07/10 08:58:19;;;;;;;;;;;12.00;97.70;;;;;;4981883;28;19920;-65
2022/07/10 09:00:46;;;;;;;;;;;12.00;97.70;;;;;;4973210;28;19917;-65
2022/07/10 09:03:12;;;;;;;;;;;11.90;97.70;;;;;;4983551;28;19914;-66
2022/07/10 09:05:39;;;;;;;;;;;11.90;97.70;;;;;;4980028;28;19957;-65
2022/07/10 09:08:21;;;;;;;;;;;12.00;97.70;;;;;;4978408;28;19953;-65
2022/07/10 09:10:47;;;;;;;;;;;12.00;97.70;;;;;;4971713;28;19977;-64
2022/07/10 09:13:14;;;;;;;;;;;12.00;97.80;;;;;;4980084;28;19973;-64
2022/07/10 09:15:40;;;;;;;;;;;12.00;97.80;;;;;;4971833;28;20009;-65
2022/07/10 09:18:07;;;;;;;;;;;12.00;97.80;;;;;;4954545;28;19921;-65
2022/07/10 09:20:37;;;;;;;;;;;12.00;97.70;;;;;;4971321;28;20313;-65
2022/07/10 09:23:20;;;;;;;;;;;12.00;97.70;;;;;;4971801;28;20024;-65
2022/07/10 09:25:47;;;;;;;;;;;12.00;97.70;;;;;;4971712;28;20411;-65
2022/07/10 09:28:14;;;;;;;;;;;12.00;97.70;;;;;;4971905;28;19911;-65
2022/07/10 09:30:41;;;;;;;;;;;12.00;97.70;;;;;;4971718;28;19921;-65
2022/07/10 09:33:18;;;;;;;;;;;12.00;97.80;;;;;;4971304;28;20348;-65
2022/07/10 09:36:06;;;;;;;;;;;12.00;97.80;;;;;;4971178;28;19949;-65
2022/07/10 09:38:44;;;;;;;;;;;12.10;97.80;;;;;;4961027;28;19910;-65
2022/07/10 09:41:17;;;;;;;;;;;12.00;97.90;;;;;;4971518;28;19914;-65
2022/07/10 09:44:11;;;;;;;;;;;12.10;97.90;;;;;;4961563;28;20008;-65
2022/07/10 09:46:38;;;;;;;;;;;12.10;97.80;;;;;;4967051;28;19968;-65
2022/07/10 09:49:08;;;;;;;;;;;12.10;97.90;;;;;;4970899;28;19914;-65
2022/07/10 09:51:45;;;;;;;;;;;12.10;97.90;;;;;;4953943;28;19917;-65
2022/07/10 09:54:11;;;;;;;;;;;12.10;97.80;;;;;;4971212;28;19918;-65
2022/07/10 09:56:46;;;;;;;;;;;12.10;97.80;;;;;;4970974;28;19920;-65
2022/07/10 09:59:13;;;;;;;;;;;12.10;97.80;;;;;;4970597;28;19913;-65
2022/07/10 10:01:49;;;;;;;;;;;12.10;97.90;;;;;;4971059;28;19915;-64
2022/07/10 10:04:16;;;;;;;;;;;12.10;97.90;;;;;;4961762;28;19910;-63
2022/07/10 10:06:43;;;;;;;;;;;12.10;97.80;;;;;;4970708;28;19921;-63
2022/07/10 10:09:16;;;;;;;;;;;12.10;97.90;;;;;;4953669;28;19949;-64
2022/07/10 10:11:45;;;;;;;;;;;12.10;97.80;;;;;;4953837;28;19934;-64
2022/07/10 10:14:11;;;;;;;;;;;12.10;97.90;;;;;;4970913;28;20340;-64
2022/07/10 10:16:38;;;;;;;;;;;12.10;97.90;;;;;;4978872;28;19920;-64
2022/07/10 10:21:49;;;;;;;;;;;12.10;97.90;;;;;;4970857;28;19925;-64
2022/07/10 10:24:16;;;;;;;;;;;12.10;97.90;;;;;;4953865;28;19945;-64
2022/07/10 10:26:42;;;;;;;;;;;12.10;97.90;;;;;;4980016;28;20357;-65
2022/07/10 10:29:09;;;;;;;;;;;12.10;97.90;;;;;;4953312;28;20008;-64
2022/07/10 10:31:35;;;;;;;;;;;12.10;97.90;;;;;;4979688;28;20423;-64
2022/07/10 10:34:02;;;;;;;;;;;12.10;97.90;;;;;;4970968;28;20309;-63
2022/07/10 10:36:41;;;;;;;;;;;12.10;97.90;;;;;;4970672;28;19957;-63
2022/07/10 10:39:16;;;;;;;;;;;12.10;97.90;;;;;;4970449;28;20290;-65
2022/07/10 10:41:43;;;;;;;;;;;12.10;97.90;;;;;;4960204;28;19960;-66
2022/07/10 10:44:13;;;;;;;;;;;12.00;97.90;;;;;;4968745;28;20024;-66
2022/07/10 10:46:56;;;;;;;;;;;12.00;97.90;;;;;;4974808;28;19917;-65
2022/07/10 10:49:24;;;;;;;;;;;12.00;97.80;;;;;;4968409;28;19918;-65
2022/07/10 10:52:01;;;;;;;;;;;12.00;97.90;;;;;;4970496;28;19918;-64
2022/07/10 10:54:28;;;;;;;;;;;12.00;97.90;;;;;;4970349;28;20299;-64
2022/07/10 10:57:14;;;;;;;;;;;12.00;97.90;;;;;;4964875;28;20634;-65
2022/07/10 10:59:47;;;;;;;;;;;12.00;97.90;;;;;;4970045;28;19906;-65
2022/07/10 11:02:23;;;;;;;;;;;12.00;97.90;;;;;;4970497;28;19914;-64
2022/07/10 11:04:50;;;;;;;;;;;11.90;97.70;;;;;;4970417;28;19906;-64
2022/07/10 11:07:34;;;;;;;;;;;11.80;97.70;;;;;;4975772;28;20002;-64
2022/07/10 11:10:19;;;;;;;;;;;11.70;97.70;;;;;;4989777;28;20621;-65
2022/07/10 11:13:01;;;;;;;;;;;11.70;97.70;;;;;;4989878;28;19918;-65
2022/07/10 11:15:32;;;;;;;;;;;11.70;97.70;;;;;;4987767;28;19924;-64
2022/07/10 11:18:08;;;;;;;;;;;11.70;97.70;;;;;;4966180;28;20402;-64
2022/07/10 11:20:35;;;;;;;;;;;11.70;97.70;;;;;;4989632;28;20462;-66
2022/07/10 11:23:20;;;;;;;;;;;11.70;97.70;;;;;;4988767;28;20379;-66
2022/07/10 11:26:12;;;;;;;;;;;11.70;97.70;;;;;;4983683;28;20452;-67
2022/07/10 11:28:48;;;;;;;;;;;11.70;97.70;;;;;;4979261;28;20308;-65
2022/07/10 11:31:14;;;;;;;;;;;11.70;97.80;;;;;;4989640;28;19913;-66
2022/07/10 11:33:46;;;;;;;;;;;11.70;97.70;;;;;;4990141;28;19961;-65
2022/07/10 11:36:13;;;;;;;;;;;11.60;97.70;;;;;;4977558;28;19910;-67
2022/07/10 11:38:41;;;;;;;;;;;11.60;97.60;;;;;;4984258;28;20385;-66
2022/07/10 11:41:14;;;;;;;;;;;11.60;97.60;;;;;;4956539;28;19914;-65
2022/07/10 11:43:53;;;;;;;;;;;11.50;97.60;;;;;;4957324;28;19914;-67
2022/07/10 11:46:24;;;;;;;;;;;11.60;97.60;;;;;;4970403;28;19993;-66
2022/07/10 11:48:52;;;;;;;;;;;11.50;97.60;;;;;;4989461;28;19921;-66
2022/07/10 11:51:27;;;;;;;;;;;11.50;97.60;;;;;;4983745;28;20324;-64
2022/07/10 11:54:03;;;;;;;;;;;11.50;97.60;;;;;;4964090;28;19937;-64
2022/07/10 11:56:33;;;;;;;;;;;11.50;97.60;;;;;;4988360;28;19909;-65
2022/07/10 11:59:03;;;;;;;;;;;11.50;97.60;;;;;;4985119;28;20375;-64
2022/07/10 12:01:31;;;;;;;;;;;11.50;97.70;;;;;;4989185;28;20284;-64
2022/07/10 12:04:05;;;;;;;;;;;11.50;97.70;;;;;;4992613;28;19916;-66
2022/07/10 12:06:34;;;;;;;;;;;11.50;97.60;;;;;;4993099;28;19916;-65
2022/07/10 12:09:11;;;;;;;;;;;11.40;97.60;;;;;;4993211;28;20020;-65
2022/07/10 12:11:37;;;;;;;;;;;11.40;97.70;;;;;;4992897;28;19921;-67
2022/07/10 12:14:10;;;;;;;;;;;11.40;97.60;;;;;;4991576;28;19924;-65
2022/07/10 12:16:37;;;;;;;;;;;11.40;97.60;;;;;;4990391;28;19912;-66
2022/07/10 12:19:04;;;;;;;;;;;11.40;97.60;;;;;;4992813;28;19916;-65
2022/07/10 12:21:30;;;;;;;;;;;11.40;97.60;;;;;;4991488;28;19909;-65
2022/07/10 12:23:57;;;;;;;;;;;11.40;97.60;;;;;;4992890;28;19970;-66
2022/07/10 12:26:24;;;;;;;;;;;11.40;97.60;;;;;;4988679;28;19960;-65
2022/07/10 12:28:55;;;;;;;;;;;11.40;97.60;;;;;;4990813;28;19910;-66
2022/07/10 12:31:24;;;;;;;;;;;11.50;97.70;;;;;;4992738;28;20330;-66
2022/07/10 12:33:52;;;;;;;;;;;11.50;97.60;;;;;;4988237;28;19926;-65
2022/07/10 12:36:20;;;;;;;;;;;11.50;97.60;;;;;;4989673;28;20047;-65
2022/07/10 12:38:53;;;;;;;;;;;11.40;97.60;;;;;;4992285;28;19914;-66
2022/07/10 12:41:24;;;;;;;;;;;11.40;97.50;;;;;;4992368;28;19911;-66
2022/07/10 12:43:51;;;;;;;;;;;11.30;97.50;;;;;;4989259;28;19916;-66
2022/07/10 12:46:21;;;;;;;;;;;11.30;97.50;;;;;;4982810;28;20279;-66
2022/07/10 12:49:03;;;;;;;;;;;11.40;97.60;;;;;;4985491;28;19913;-66
2022/07/10 12:51:30;;;;;;;;;;;11.40;97.60;;;;;;4992102;28;19909;-66
2022/07/10 12:53:57;;;;;;;;;;;11.40;97.60;;;;;;4978199;28;20352;-66
2022/07/10 12:56:27;;;;;;;;;;;11.40;97.60;;;;;;4974826;28;20614;-67
2022/07/10 12:58:54;;;;;;;;;;;11.40;97.60;;;;;;4985827;28;20312;-66
2022/07/10 13:01:20;;;;;;;;;;;11.30;97.60;;;;;;4985159;28;20016;-67
2022/07/10 13:03:47;;;;;;;;;;;11.30;97.50;;;;;;4985617;28;19960;-67
2022/07/10 13:06:27;;;;;;;;;;;11.40;97.60;;;;;;4992300;28;19909;-67
2022/07/10 13:08:54;;;;;;;;;;;11.30;97.60;;;;;;4991423;28;20016;-67
2022/07/10 13:11:21;;;;;;;;;;;11.30;97.60;;;;;;4981831;28;19913;-66
2022/07/10 13:13:48;;;;;;;;;;;11.30;97.50;;;;;;4982264;28;19980;-66
2022/07/10 13:16:15;;;;;;;;;;;11.30;97.60;;;;;;4991573;28;19909;-67
2022/07/10 13:18:45;;;;;;;;;;;11.20;97.50;;;;;;4991572;28;19956;-67
2022/07/10 13:21:12;;;;;;;;;;;11.20;97.50;;;;;;4991776;28;19910;-66
2022/07/10 13:23:38;;;;;;;;;;;11.20;97.50;;;;;;4991519;28;20371;-67
2022/07/10 13:26:08;;;;;;;;;;;11.20;97.60;;;;;;4990310;28;19984;-67
2022/07/10 13:28:35;;;;;;;;;;;11.20;97.60;;;;;;4973516;28;20359;-67
2022/07/10 13:31:02;;;;;;;;;;;11.20;97.60;;;;;;4977838;28;19914;-65
2022/07/10 13:33:28;;;;;;;;;;;11.20;97.60;;;;;;4991604;28;20438;-65
2022/07/10 13:35:55;;;;;;;;;;;11.20;97.60;;;;;;4990305;28;19906;-66
2022/07/10 13:38:23;;;;;;;;;;;11.20;97.60;;;;;;4967235;28;20375;-67
2022/07/10 13:40:50;;;;;;;;;;;11.20;97.60;;;;;;4991154;28;20272;-66
2022/07/10 13:43:16;;;;;;;;;;;11.20;97.60;;;;;;4991124;28;20348;-68
2022/07/10 13:45:43;;;;;;;;;;;11.20;97.60;;;;;;4989131;28;19970;-65
2022/07/10 13:48:10;;;;;;;;;;;11.20;97.50;;;;;;4990155;28;19952;-64
2022/07/10 13:50:40;;;;;;;;;;;11.20;97.50;;;;;;4988117;28;19917;-65
2022/07/10 13:53:07;;;;;;;;;;;11.20;97.50;;;;;;4987225;28;19968;-64
2022/07/10 13:55:34;;;;;;;;;;;11.20;97.60;;;;;;4962039;28;19918;-66
2022/07/10 13:58:00;;;;;;;;;;;11.20;97.60;;;;;;4988696;28;21045;-66
2022/07/10 14:00:27;;;;;;;;;;;11.20;97.60;;;;;;4993566;28;19914;-65
2022/07/10 14:02:55;;;;;;;;;;;11.20;97.60;;;;;;4993337;28;20372;-66
2022/07/10 14:05:22;;;;;;;;;;;11.20;97.60;;;;;;4975163;28;19918;-66
2022/07/10 14:07:49;;;;;;;;;;;11.30;97.60;;;;;;4993334;28;19918;-66
2022/07/10 14:10:15;;;;;;;;;;;11.20;97.50;;;;;;4993179;28;20368;-66
2022/07/10 14:12:42;;;;;;;;;;;11.20;97.50;;;;;;4993660;28;20392;-66
2022/07/10 14:15:09;;;;;;;;;;;11.20;97.50;;;;;;4963406;28;20287;-66
2022/07/10 14:17:36;;;;;;;;;;;11.20;97.50;;;;;;4991549;28;20010;-66
2022/07/10 14:20:02;;;;;;;;;;;11.20;97.50;;;;;;4993003;28;19960;-66
2022/07/10 14:22:29;;;;;;;;;;;11.10;97.50;;;;;;4992886;28;19953;-66
2022/07/10 14:25:00;;;;;;;;;;;11.20;97.50;;;;;;4990414;28;19917;-66
2022/07/10 14:27:27;;;;;;;;;;;11.20;97.50;;;;;;4992962;28;19916;-66
2022/07/10 14:29:54;;;;;;;;;;;11.20;97.50;;;;;;4987217;28;19912;-66
2022/07/10 14:32:20;;;;;;;;;;;11.20;97.50;;;;;;4986959;28;19910;-66
2022/07/10 14:34:47;;;;;;;;;;;11.20;97.60;;;;;;4992794;28;19910;-66
2022/07/10 14:37:13;;;;;;;;;;;11.20;97.50;;;;;;4993191;28;20001;-66
2022/07/10 14:39:40;;;;;;;;;;;11.20;97.50;;;;;;4989400;28;20342;-66
2022/07/10 14:42:07;;;;;;;;;;;11.10;97.50;;;;;;4993050;28;19905;-66
2022/07/10 14:44:33;;;;;;;;;;;11.20;97.60;;;;;;4979226;28;20336;-66
2022/07/10 14:47:00;;;;;;;;;;;11.20;97.60;;;;;;4992839;28;19913;-67
2022/07/10 14:49:27;;;;;;;;;;;11.20;97.60;;;;;;4992483;28;19910;-66
2022/07/10 14:51:54;;;;;;;;;;;11.30;97.70;;;;;;4992687;28;20323;-66
2022/07/10 14:54:21;;;;;;;;;;;11.30;97.70;;;;;;4992536;28;19980;-66
2022/07/10 14:56:48;;;;;;;;;;;11.30;97.60;;;;;;4992543;28;19905;-67
2022/07/10 14:59:14;;;;;;;;;;;11.20;97.60;;;;;;4977045;28;19911;-66
2022/07/10 15:01:41;;;;;;;;;;;11.30;97.70;;;;;;4987344;28;19985;-66
2022/07/10 15:04:07;;;;;;;;;;;11.20;97.60;;;;;;4992851;28;20694;-66
2022/07/10 15:06:34;;;;;;;;;;;11.30;97.70;;;;;;4992945;28;19937;-65
2022/07/10 15:09:01;;;;;;;;;;;11.20;97.60;;;;;;4992687;28;19945;-65
2022/07/10 15:11:27;;;;;;;;;;;11.30;97.70;;;;;;4975419;28;20324;-66
2022/07/10 15:13:58;;;;;;;;;;;11.20;97.70;;;;;;4985562;28;19918;-65
2022/07/10 15:16:26;;;;;;;;;;;11.30;97.70;;;;;;4984803;28;19922;-64
2022/07/10 15:18:57;;;;;;;;;;;11.30;97.70;;;;;;4992336;28;19922;-65
2022/07/10 15:21:24;;;;;;;;;;;11.30;97.80;;;;;;4985845;28;20386;-65
2022/07/10 15:23:51;;;;;;;;;;;11.30;97.80;;;;;;4992615;28;20236;-66
2022/07/10 15:26:17;;;;;;;;;;;11.30;97.80;;;;;;4992624;28;20004;-65
2022/07/10 15:28:44;;;;;;;;;;;11.40;97.80;;;;;;4980202;28;19917;-66
2022/07/10 15:31:10;;;;;;;;;;;11.40;97.80;;;;;;4990539;28;19913;-66
2022/07/10 15:33:37;;;;;;;;;;;11.40;97.80;;;;;;4984012;28;19961;-66
2022/07/10 15:36:04;;;;;;;;;;;11.40;97.80;;;;;;4994900;28;20008;-65
2022/07/10 15:38:31;;;;;;;;;;;11.30;97.80;;;;;;4996335;28;19961;-65
2022/07/10 15:40:57;;;;;;;;;;;11.40;97.90;;;;;;4996036;28;19912;-65
2022/07/10 15:43:27;;;;;;;;;;;11.40;97.90;;;;;;4970500;28;19937;-66
2022/07/10 15:45:54;;;;;;;;;;;11.40;97.90;;;;;;4996174;28;19913;-66
2022/07/10 15:48:20;;;;;;;;;;;11.40;97.90;;;;;;4996137;28;19992;-66
2022/07/10 15:50:47;;;;;;;;;;;11.40;97.90;;;;;;4995840;28;19953;-66
2022/07/10 15:53:14;;;;;;;;;;;11.40;97.90;;;;;;4995935;28;19914;-66
2022/07/10 15:55:40;;;;;;;;;;;11.30;97.90;;;;;;4985584;28;19928;-66
2022/07/10 15:58:08;;;;;;;;;;;11.40;98.00;;;;;;4989308;28;19941;-66
2022/07/10 16:00:34;;;;;;;;;;;11.40;97.90;;;;;;4995779;28;19912;-66
2022/07/10 16:03:01;;;;;;;;;;;11.40;98.00;;;;;;4995421;28;20395;-66
2022/07/10 16:05:28;;;;;;;;;;;11.40;98.00;;;;;;4995399;28;19906;-66
2022/07/10 16:07:54;;;;;;;;;;;11.40;98.00;;;;;;4995537;28;20006;-66
2022/07/10 16:10:21;;;;;;;;;;;11.40;98.10;;;;;;4995487;28;19916;-65
2022/07/10 16:12:47;;;;;;;;;;;11.50;98.10;;;;;;4988208;28;19910;-65
2022/07/10 16:15:14;;;;;;;;;;;11.50;98.10;;;;;;4988813;28;19920;-66
2022/07/10 16:17:42;;;;;;;;;;;11.50;98.10;;;;;;4995405;28;19906;-65
2022/07/10 16:20:11;;;;;;;;;;;11.50;98.10;;;;;;4995358;28;19906;-65
2022/07/10 16:22:38;;;;;;;;;;;11.50;98.20;;;;;;4995473;28;19912;-65
2022/07/10 16:27:49;;;;;;;;;;;11.50;98.20;;;;;;4987296;28;19921;-65
2022/07/10 16:30:16;;;;;;;;;;;11.50;98.20;;;;;;4973495;28;21812;-66
2022/07/10 16:32:42;;;;;;;;;;;11.60;98.20;;;;;;4992111;28;21108;-66
2022/07/10 16:35:09;;;;;;;;;;;11.50;98.20;;;;;;4995382;28;19951;-65
2022/07/10 16:37:35;;;;;;;;;;;11.50;98.20;;;;;;4995278;28;19912;-65
2022/07/10 16:40:02;;;;;;;;;;;11.50;98.20;;;;;;4995224;28;20267;-65
2022/07/10 16:42:29;;;;;;;;;;;11.50;98.20;;;;;;4995063;28;20383;-65
2022/07/10 16:44:56;;;;;;;;;;;11.50;98.20;;;;;;4991302;28;19964;-65
2022/07/10 16:47:23;;;;;;;;;;;11.50;98.20;;;;;;4977166;28;19905;-66
2022/07/10 16:49:50;;;;;;;;;;;11.50;98.20;;;;;;4992408;28;19902;-65
2022/07/10 16:52:16;;;;;;;;;;;11.40;98.10;;;;;;4984618;28;19913;-66
2022/07/10 16:54:43;;;;;;;;;;;11.50;98.10;;;;;;4994727;28;20368;-65
2022/07/10 16:57:09;;;;;;;;;;;11.40;98.10;;;;;;4994966;28;20000;-66
2022/07/10 16:59:36;;;;;;;;;;;11.30;98.00;;;;;;4994667;28;20364;-65
2022/07/10 17:02:03;;;;;;;;;;;11.30;98.00;;;;;;4994652;28;20364;-65
2022/07/10 17:04:36;;;;;;;;;;;11.30;98.00;;;;;;4993290;28;20291;-65
2022/07/10 17:07:03;;;;;;;;;;;11.20;98.00;;;;;;4985125;28;19920;-65
2022/07/10 17:09:29;;;;;;;;;;;11.30;98.00;;;;;;4972347;28;20328;-65
2022/07/10 17:11:56;;;;;;;;;;;11.20;98.00;;;;;;4988859;28;20261;-65
2022/07/10 17:14:22;;;;;;;;;;;11.20;98.10;;;;;;4994691;28;19914;-66
2022/07/10 17:16:49;;;;;;;;;;;11.20;98.00;;;;;;4994472;28;19913;-66
2022/07/10 17:19:16;;;;;;;;;;;11.20;98.10;;;;;;4985732;28;19910;-65
2022/07/10 17:21:42;;;;;;;;;;;11.20;98.10;;;;;;4982157;28;19918;-65
2022/07/10 17:24:09;;;;;;;;;;;11.20;98.10;;;;;;4994196;28;19906;-64
2022/07/10 17:26:35;;;;;;;;;;;11.20;98.10;;;;;;4983603;28;19953;-65
2022/07/10 17:29:02;;;;;;;;;;;11.20;98.10;;;;;;4994236;28;19906;-65
2022/07/10 17:31:29;;;;;;;;;;;11.20;98.10;;;;;;4981988;28;19955;-65
2022/07/10 17:33:55;;;;;;;;;;;11.20;98.10;;;;;;4992567;28;19921;-66
2022/07/10 17:36:22;;;;;;;;;;;11.20;98.10;;;;;;4993667;28;19906;-65
2022/07/10 17:38:50;;;;;;;;;;;11.20;98.10;;;;;;4994055;28;19917;-65
2022/07/10 17:41:17;;;;;;;;;;;11.20;98.10;;;;;;4994223;28;19945;-65
2022/07/10 17:43:43;;;;;;;;;;;11.20;98.10;;;;;;4993428;28;20019;-65
2022/07/10 17:46:10;;;;;;;;;;;11.20;98.20;;;;;;4981605;28;20288;-65
2022/07/10 17:48:37;;;;;;;;;;;11.30;98.20;;;;;;4993893;28;19985;-65
2022/07/10 17:51:03;;;;;;;;;;;11.30;98.20;;;;;;4993498;28;19913;-65
2022/07/10 17:53:31;;;;;;;;;;;11.30;98.20;;;;;;4993805;28;19920;-66
2022/07/10 17:55:57;;;;;;;;;;;11.30;98.20;;;;;;4946054;28;20357;-65
2022/07/10 17:58:24;;;;;;;;;;;11.30;98.30;;;;;;4983950;28;19912;-65
2022/07/10 18:00:51;;;;;;;;;;;11.30;98.30;;;;;;4993535;28;19909;-65
2022/07/10 18:03:17;;;;;;;;;;;11.30;98.30;;;;;;4986357;28;19911;-65
2022/07/10 18:05:47;;;;;;;;;;;11.30;98.20;;;;;;4987998;28;20365;-65
2022/07/10 18:08:13;;;;;;;;;;;11.40;98.30;;;;;;5006580;28;19996;-65
2022/07/10 18:10:40;;;;;;;;;;;11.40;98.20;;;;;;5012864;28;19905;-65
2022/07/10 18:13:07;;;;;;;;;;;11.30;98.20;;;;;;5012913;28;19920;-65
2022/07/10 18:15:34;;;;;;;;;;;11.20;98.20;;;;;;5012973;28;19940;-65
2022/07/10 18:18:02;;;;;;;;;;;11.20;98.20;;;;;;5006735;28;20331;-65
2022/07/10 18:20:28;;;;;;;;;;;11.20;98.20;;;;;;5001998;28;19905;-65
2022/07/10 18:22:55;;;;;;;;;;;11.20;98.10;;;;;;5005362;28;19909;-66
2022/07/10 18:25:22;;;;;;;;;;;11.20;98.10;;;;;;5012941;28;19905;-65
2022/07/10 18:27:49;;;;;;;;;;;11.20;98.10;;;;;;5012987;28;19905;-65
2022/07/10 18:30:16;;;;;;;;;;;11.10;98.10;;;;;;5007838;28;19913;-65
2022/07/10 18:35:27;;;;;;;;;;;11.10;98.10;;;;;;5012781;28;19913;-65
2022/07/10 18:37:53;;;;;;;;;;;11.10;98.10;;;;;;5012804;28;19921;-65
2022/07/10 18:40:20;;;;;;;;;;;11.10;98.10;;;;;;5012358;28;19909;-65
2022/07/10 18:42:46;;;;;;;;;;;11.10;98.10;;;;;;5000086;28;20279;-65
2022/07/10 18:45:13;;;;;;;;;;;11.00;98.00;;;;;;5008896;28;19920;-65
2022/07/10 18:47:40;;;;;;;;;;;11.00;98.10;;;;;;5012406;28;19932;-65
2022/07/10 18:50:07;;;;;;;;;;;11.00;98.00;;;;;;5012330;28;19925;-65
2022/07/10 18:52:33;;;;;;;;;;;11.00;98.00;;;;;;5008168;28;20272;-65
2022/07/10 18:55:00;;;;;;;;;;;11.00;98.10;;;;;;5006071;28;20323;-65
2022/07/10 18:57:26;;;;;;;;;;;11.00;98.00;;;;;;4991584;28;20468;-65
2022/07/10 18:59:53;;;;;;;;;;;11.00;98.10;;;;;;4990003;28;19965;-65
2022/07/10 19:02:19;;;;;;;;;;;11.00;98.10;;;;;;4981453;28;20323;-65
2022/07/10 19:04:46;;;;;;;;;;;10.90;98.10;;;;;;4992807;28;20257;-65
2022/07/10 19:07:12;;;;;;;;;;;11.00;98.00;;;;;;4994224;28;20221;-65
2022/07/10 19:09:39;;;;;;;;;;;10.90;98.00;;;;;;4975443;28;19910;-65
2022/07/10 19:12:06;;;;;;;;;;;10.80;97.90;;;;;;4997255;28;20277;-63
2022/07/10 19:14:33;;;;;;;;;;;10.80;97.90;;;;;;4996664;28;19914;-65
2022/07/10 19:16:59;;;;;;;;;;;10.80;97.90;;;;;;5004824;28;19984;-65
2022/07/10 19:19:26;;;;;;;;;;;10.80;98.00;;;;;;5006032;28;20319;-66
2022/07/10 19:21:52;;;;;;;;;;;10.70;98.00;;;;;;5016131;28;19905;-65
2022/07/10 19:24:22;;;;;;;;;;;10.70;98.00;;;;;;5008164;28;20279;-65
2022/07/10 19:26:49;;;;;;;;;;;10.70;98.00;;;;;;5005511;28;19920;-65
2022/07/10 19:29:16;;;;;;;;;;;10.70;98.00;;;;;;5016542;28;19910;-65
2022/07/10 19:31:42;;;;;;;;;;;10.70;98.00;;;;;;5010214;28;20360;-65
2022/07/10 19:34:09;;;;;;;;;;;10.70;98.00;;;;;;4995678;28;19920;-65
2022/07/10 19:36:36;;;;;;;;;;;10.80;98.10;;;;;;5015999;28;19910;-65
2022/07/10 19:39:02;;;;;;;;;;;10.80;98.00;;;;;;5015701;28;19948;-65
2022/07/10 19:41:29;;;;;;;;;;;10.80;98.00;;;;;;5015994;28;19921;-65
2022/07/10 19:43:56;;;;;;;;;;;10.80;98.00;;;;;;4988663;28;19906;-65
2022/07/10 19:46:22;;;;;;;;;;;10.70;98.00;;;;;;5015161;28;19911;-65
2022/07/10 19:48:49;;;;;;;;;;;10.80;98.00;;;;;;5015326;28;19902;-65
2022/07/10 19:51:17;;;;;;;;;;;10.70;98.00;;;;;;5015700;28;20414;-65